TimeCDT,TemperatureF,Dew PointF,Humidity,Sea Level PressureIn,VisibilityMPH,Wind Direction,Wind SpeedMPH,Gust SpeedMPH,PrecipitationIn,Events,Conditions,WindDirDegrees,DateUTC
12:53 AM,54.0,45.0,72,30.13,10.0,ENE,4.6,-,N/A,,Clear,70,2013-04-06 05:53:00
1:53 AM,54.0,45.0,72,30.14,10.0,Calm,Calm,-,N/A,,Clear,0,2013-04-06 06:53:00
2:53 AM,54.0,45.0,72,30.13,10.0,Calm,Calm,-,N/A,,Clear,0,2013-04-06 07:53:00
3:53 AM,51.1,44.1,77,30.12,10.0,Calm,Calm,-,N/A,,Clear,0,2013-04-06 08:53:00
4:53 AM,51.1,44.1,77,30.11,10.0,ESE,4.6,-,N/A,,Clear,110,2013-04-06 09:53:00
5:53 AM,51.1,45.0,80,30.12,10.0,Calm,Calm,-,N/A,,Clear,0,2013-04-06 10:53:00
6:53 AM,50.0,45.0,83,30.12,10.0,SE,3.5,-,N/A,,Clear,130,2013-04-06 11:53:00
7:53 AM,53.1,48.0,83,30.13,10.0,Calm,Calm,-,N/A,,Clear,0,2013-04-06 12:53:00
8:53 AM,60.1,53.1,78,30.13,10.0,SE,5.8,-,N/A,,Clear,130,2013-04-06 13:53:00
9:53 AM,66.0,53.1,63,30.14,10.0,SSE,9.2,-,N/A,,Clear,150,2013-04-06 14:53:00
10:53 AM,70.0,53.1,55,30.15,10.0,SSE,9.2,-,N/A,,Clear,150,2013-04-06 15:53:00
11:53 AM,71.1,51.1,49,30.16,10.0,South,11.5,-,N/A,,Clear,180,2013-04-06 16:53:00
12:53 PM,71.1,53.1,53,30.16,10.0,South,12.7,-,N/A,,Partly Cloudy,190,2013-04-06 17:53:00
1:53 PM,71.1,53.1,53,30.14,10.0,South,13.8,19.6,N/A,,Mostly Cloudy,180,2013-04-06 18:53:00
2:53 PM,70.0,54.0,57,30.11,10.0,South,5.8,17.3,N/A,,Scattered Clouds,190,2013-04-06 19:53:00
3:53 PM,71.1,54.0,55,30.08,10.0,South,13.8,-,N/A,,Clear,170,2013-04-06 20:53:00
4:53 PM,71.1,53.1,53,30.07,10.0,SSW,10.4,-,N/A,,Mostly Cloudy,200,2013-04-06 21:53:00
5:53 PM,70.0,53.1,55,30.06,10.0,South,8.1,-,N/A,,Clear,170,2013-04-06 22:53:00
6:53 PM,68.0,53.1,59,30.06,10.0,South,8.1,-,N/A,,Clear,180,2013-04-06 23:53:00
7:53 PM,62.1,53.1,72,30.06,10.0,SSE,6.9,-,N/A,,Clear,160,2013-04-07 00:53:00
8:53 PM,61.0,53.1,75,30.06,10.0,South,3.5,-,N/A,,Clear,170,2013-04-07 01:53:00
9:53 PM,59.0,53.1,81,30.07,10.0,SE,4.6,-,N/A,,Clear,140,2013-04-07 02:53:00
10:53 PM,61.0,54.0,78,30.07,10.0,SE,5.8,-,N/A,,Overcast,140,2013-04-07 03:53:00
11:53 PM,59.0,54.0,83,30.06,10.0,SE,5.8,-,N/A,,Clear,140,2013-04-07 04:53:00